sensor_id;sensor_type;location;lat;lon;timestamp;temperature;humidity
33139;DHT22;19501;50.948;5.316;2023-10-09T00:00:16;16.80;99.90
33139;DHT22;19501;50.948;5.316;2023-10-09T00:03:00;16.70;99.90
33139;DHT22;19501;50.948;5.316;2023-10-09T00:05:26;16.60;99.90
33139;DHT22;19501;50.948;5.316;2023-10-09T00:08:22;16.70;99.90
33139;DHT22;19501;50.948;5.316;2023-10-09T00:10:51;16.80;99.90
33139;DHT22;19501;50.948;5.316;2023-10-09T00:13:24;16.70;99.90
33139;DHT22;19501;50.948;5.316;2023-10-09T00:16:06;16.60;99.90
33139;DHT22;19501;50.948;5.316;2023-10-09T00:18:43;16.30;99.90
33139;DHT22;19501;50.948;5.316;2023-10-09T00:21:18;16.30;99.90
33139;DHT22;19501;50.948;5.316;2023-10-09T00:23:48;16.30;99.90
33139;DHT22;19501;50.948;5.316;2023-10-09T00:26:25;16.40;99.90
33139;DHT22;19501;50.948;5.316;2023-10-09T00:28:51;16.30;99.90
33139;DHT22;19501;50.948;5.316;2023-10-09T00:31:20;16.20;99.90
33139;DHT22;19501;50.948;5.316;2023-10-09T00:33:55;16.10;99.90
33139;DHT22;19501;50.948;5.316;2023-10-09T00:36:26;16.10;99.90
33139;DHT22;19501;50.948;5.316;2023-10-09T00:38:55;16.10;99.90
33139;DHT22;19501;50.948;5.316;2023-10-09T00:41:23;16.20;99.90
33139;DHT22;19501;50.948;5.316;2023-10-09T00:43:51;16.20;99.90
33139;DHT22;19501;50.948;5.316;2023-10-09T00:46:20;16.30;99.90
33139;DHT22;19501;50.948;5.316;2023-10-09T00:48:57;16.40;99.90
33139;DHT22;19501;50.948;5.316;2023-10-09T00:51:27;16.50;99.90
33139;DHT22;19501;50.948;5.316;2023-10-09T00:54:01;16.40;99.90
33139;DHT22;19501;50.948;5.316;2023-10-09T00:56:43;16.40;99.90
33139;DHT22;19501;50.948;5.316;2023-10-09T00:59:15;16.20;99.90
33139;DHT22;19501;50.948;5.316;2023-10-09T01:01:43;16.10;99.90
33139;DHT22;19501;50.948;5.316;2023-10-09T01:04:43;16.10;99.90
33139;DHT22;19501;50.948;5.316;2023-10-09T01:07:10;16.10;99.90
33139;DHT22;19501;50.948;5.316;2023-10-09T01:09:46;16.10;99.90
33139;DHT22;19501;50.948;5.316;2023-10-09T01:12:15;16.40;99.90
33139;DHT22;19501;50.948;5.316;2023-10-09T01:14:44;16.50;99.90
33139;DHT22;19501;50.948;5.316;2023-10-09T01:17:09;16.40;99.90
33139;DHT22;19501;50.948;5.316;2023-10-09T01:19:37;16.50;99.90
33139;DHT22;19501;50.948;5.316;2023-10-09T01:22:03;16.50;99.90
33139;DHT22;19501;50.948;5.316;2023-10-09T01:24:39;16.70;99.90
33139;DHT22;19501;50.948;5.316;2023-10-09T01:27:06;16.70;99.90
33139;DHT22;19501;50.948;5.316;2023-10-09T01:29:38;16.80;99.90
33139;DHT22;19501;50.948;5.316;2023-10-09T01:32:07;16.80;99.90
33139;DHT22;19501;50.948;5.316;2023-10-09T01:34:35;16.80;99.90
33139;DHT22;19501;50.948;5.316;2023-10-09T01:37:19;16.80;99.90
33139;DHT22;19501;50.948;5.316;2023-10-09T01:39:55;16.60;99.90
33139;DHT22;19501;50.948;5.316;2023-10-09T01:42:25;16.40;99.90
33139;DHT22;19501;50.948;5.316;2023-10-09T01:45:02;16.30;99.90
33139;DHT22;19501;50.948;5.316;2023-10-09T01:47:38;16.40;99.90
33139;DHT22;19501;50.948;5.316;2023-10-09T01:50:06;16.40;99.90
33139;DHT22;19501;50.948;5.316;2023-10-09T01:52:45;16.40;99.90
33139;DHT22;19501;50.948;5.316;2023-10-09T01:55:13;16.40;99.90
33139;DHT22;19501;50.948;5.316;2023-10-09T01:57:53;16.50;99.90
33139;DHT22;19501;50.948;5.316;2023-10-09T02:00:18;16.40;99.90
33139;DHT22;19501;50.948;5.316;2023-10-09T02:02:49;16.40;99.90
33139;DHT22;19501;50.948;5.316;2023-10-09T02:05:16;16.40;99.90
33139;DHT22;19501;50.948;5.316;2023-10-09T02:07:45;16.50;99.90
33139;DHT22;19501;50.948;5.316;2023-10-09T02:10:17;16.50;99.90
33139;DHT22;19501;50.948;5.316;2023-10-09T02:12:51;16.70;99.90
33139;DHT22;19501;50.948;5.316;2023-10-09T02:15:19;16.70;99.90
33139;DHT22;19501;50.948;5.316;2023-10-09T02:18:05;16.70;99.90
33139;DHT22;19501;50.948;5.316;2023-10-09T02:20:45;16.60;99.90
33139;DHT22;19501;50.948;5.316;2023-10-09T02:23:12;16.70;99.90
33139;DHT22;19501;50.948;5.316;2023-10-09T02:25:56;16.70;99.90
33139;DHT22;19501;50.948;5.316;2023-10-09T02:28:22;16.60;99.90
33139;DHT22;19501;50.948;5.316;2023-10-09T02:30:47;16.50;99.90
33139;DHT22;19501;50.948;5.316;2023-10-09T02:33:14;16.40;99.90
33139;DHT22;19501;50.948;5.316;2023-10-09T02:35:46;16.40;99.90
33139;DHT22;19501;50.948;5.316;2023-10-09T02:38:17;16.40;99.90
33139;DHT22;19501;50.948;5.316;2023-10-09T02:40:43;16.40;99.90
33139;DHT22;19501;50.948;5.316;2023-10-09T02:43:31;16.40;99.90
33139;DHT22;19501;50.948;5.316;2023-10-09T02:46:13;16.40;99.90
33139;DHT22;19501;50.948;5.316;2023-10-09T02:48:59;16.30;99.90
33139;DHT22;19501;50.948;5.316;2023-10-09T02:51:30;16.40;99.90
33139;DHT22;19501;50.948;5.316;2023-10-09T02:54:00;16.40;99.90
33139;DHT22;19501;50.948;5.316;2023-10-09T02:56:34;16.20;99.90
33139;DHT22;19501;50.948;5.316;2023-10-09T02:59:06;16.20;99.90
33139;DHT22;19501;50.948;5.316;2023-10-09T03:01:36;16.30;99.90
33139;DHT22;19501;50.948;5.316;2023-10-09T03:04:03;16.30;99.90
33139;DHT22;19501;50.948;5.316;2023-10-09T03:06:33;16.40;99.90
33139;DHT22;19501;50.948;5.316;2023-10-09T03:09:11;16.50;99.90
33139;DHT22;19501;50.948;5.316;2023-10-09T03:11:50;16.40;99.90
33139;DHT22;19501;50.948;5.316;2023-10-09T03:14:32;16.40;99.90
33139;DHT22;19501;50.948;5.316;2023-10-09T03:16:58;16.40;99.90
33139;DHT22;19501;50.948;5.316;2023-10-09T03:19:32;16.20;99.90
33139;DHT22;19501;50.948;5.316;2023-10-09T03:22:03;16.10;99.90
33139;DHT22;19501;50.948;5.316;2023-10-09T03:24:29;16.10;99.90
33139;DHT22;19501;50.948;5.316;2023-10-09T03:26:58;16.20;99.90
33139;DHT22;19501;50.948;5.316;2023-10-09T03:29:26;16.30;99.90
33139;DHT22;19501;50.948;5.316;2023-10-09T03:31:53;16.40;99.90
33139;DHT22;19501;50.948;5.316;2023-10-09T03:34:20;16.40;99.90
33139;DHT22;19501;50.948;5.316;2023-10-09T03:36:46;16.50;99.90
33139;DHT22;19501;50.948;5.316;2023-10-09T03:39:13;16.40;99.90
33139;DHT22;19501;50.948;5.316;2023-10-09T03:41:58;16.40;99.90
33139;DHT22;19501;50.948;5.316;2023-10-09T03:44:33;16.30;99.90
33139;DHT22;19501;50.948;5.316;2023-10-09T03:47:06;16.10;99.90
33139;DHT22;19501;50.948;5.316;2023-10-09T03:49:35;16.20;99.90
33139;DHT22;19501;50.948;5.316;2023-10-09T03:52:05;16.30;99.90
33139;DHT22;19501;50.948;5.316;2023-10-09T03:54:32;16.40;99.90
33139;DHT22;19501;50.948;5.316;2023-10-09T03:57:00;16.40;99.90
33139;DHT22;19501;50.948;5.316;2023-10-09T03:59:26;16.40;99.90
33139;DHT22;19501;50.948;5.316;2023-10-09T04:01:57;16.30;99.90
33139;DHT22;19501;50.948;5.316;2023-10-09T04:04:24;16.20;99.90
33139;DHT22;19501;50.948;5.316;2023-10-09T04:06:50;16.20;99.90
33139;DHT22;19501;50.948;5.316;2023-10-09T04:09:18;16.30;99.90
33139;DHT22;19501;50.948;5.316;2023-10-09T04:11:49;16.30;99.90
33139;DHT22;19501;50.948;5.316;2023-10-09T04:14:33;16.30;99.90
33139;DHT22;19501;50.948;5.316;2023-10-09T04:17:00;16.20;99.90
33139;DHT22;19501;50.948;5.316;2023-10-09T04:19:51;16.10;99.90
33139;DHT22;19501;50.948;5.316;2023-10-09T04:22:39;16.00;99.90
33139;DHT22;19501;50.948;5.316;2023-10-09T04:25:08;16.10;99.90
33139;DHT22;19501;50.948;5.316;2023-10-09T04:27:41;16.10;99.90
33139;DHT22;19501;50.948;5.316;2023-10-09T04:30:07;16.00;99.90
33139;DHT22;19501;50.948;5.316;2023-10-09T04:32:33;15.90;99.90
33139;DHT22;19501;50.948;5.316;2023-10-09T04:35:00;16.00;99.90
33139;DHT22;19501;50.948;5.316;2023-10-09T04:37:45;15.90;99.90
33139;DHT22;19501;50.948;5.316;2023-10-09T04:40:18;16.00;99.90
33139;DHT22;19501;50.948;5.316;2023-10-09T04:43:02;16.10;99.90
33139;DHT22;19501;50.948;5.316;2023-10-09T04:45:38;16.10;99.90
33139;DHT22;19501;50.948;5.316;2023-10-09T04:48:26;16.10;99.90
33139;DHT22;19501;50.948;5.316;2023-10-09T04:50:59;16.00;99.90
33139;DHT22;19501;50.948;5.316;2023-10-09T04:53:57;15.90;99.90
33139;DHT22;19501;50.948;5.316;2023-10-09T04:56:41;15.90;99.90
33139;DHT22;19501;50.948;5.316;2023-10-09T04:59:19;15.90;99.90
33139;DHT22;19501;50.948;5.316;2023-10-09T05:01:45;15.80;99.90
33139;DHT22;19501;50.948;5.316;2023-10-09T05:04:23;15.90;99.90
33139;DHT22;19501;50.948;5.316;2023-10-09T05:07:00;16.00;99.90
33139;DHT22;19501;50.948;5.316;2023-10-09T05:09:46;16.10;99.90
33139;DHT22;19501;50.948;5.316;2023-10-09T05:12:30;16.20;99.90
33139;DHT22;19501;50.948;5.316;2023-10-09T05:14:55;16.20;99.90
33139;DHT22;19501;50.948;5.316;2023-10-09T05:17:40;16.20;99.90
33139;DHT22;19501;50.948;5.316;2023-10-09T05:20:16;16.10;99.90
33139;DHT22;19501;50.948;5.316;2023-10-09T05:23:07;15.90;99.90
33139;DHT22;19501;50.948;5.316;2023-10-09T05:25:52;15.90;99.90
33139;DHT22;19501;50.948;5.316;2023-10-09T05:28:24;16.10;99.90
33139;DHT22;19501;50.948;5.316;2023-10-09T05:31:14;16.10;99.90
33139;DHT22;19501;50.948;5.316;2023-10-09T05:34:10;16.30;99.90
33139;DHT22;19501;50.948;5.316;2023-10-09T05:36:37;16.20;99.90
33139;DHT22;19501;50.948;5.316;2023-10-09T05:39:03;16.10;99.90
33139;DHT22;19501;50.948;5.316;2023-10-09T05:41:48;16.10;99.90
33139;DHT22;19501;50.948;5.316;2023-10-09T05:44:16;16.20;99.90
33139;DHT22;19501;50.948;5.316;2023-10-09T05:47:01;16.10;99.90
33139;DHT22;19501;50.948;5.316;2023-10-09T05:49:44;16.10;99.90
33139;DHT22;19501;50.948;5.316;2023-10-09T05:52:29;16.20;99.90
33139;DHT22;19501;50.948;5.316;2023-10-09T05:54:59;16.20;99.90
33139;DHT22;19501;50.948;5.316;2023-10-09T05:57:43;16.10;99.90
33139;DHT22;19501;50.948;5.316;2023-10-09T06:00:27;16.00;99.90
33139;DHT22;19501;50.948;5.316;2023-10-09T06:03:11;16.20;99.90
33139;DHT22;19501;50.948;5.316;2023-10-09T06:05:50;16.20;99.90
33139;DHT22;19501;50.948;5.316;2023-10-09T06:08:19;16.10;99.90
33139;DHT22;19501;50.948;5.316;2023-10-09T06:11:04;16.10;99.90
33139;DHT22;19501;50.948;5.316;2023-10-09T06:13:48;16.00;99.90
33139;DHT22;19501;50.948;5.316;2023-10-09T06:16:27;16.10;99.90
33139;DHT22;19501;50.948;5.316;2023-10-09T06:19:14;16.30;99.90
33139;DHT22;19501;50.948;5.316;2023-10-09T06:22:00;16.40;99.90
33139;DHT22;19501;50.948;5.316;2023-10-09T06:24:38;16.50;99.90
33139;DHT22;19501;50.948;5.316;2023-10-09T06:27:19;16.50;99.90
33139;DHT22;19501;50.948;5.316;2023-10-09T06:29:59;16.70;99.90
33139;DHT22;19501;50.948;5.316;2023-10-09T06:32:49;16.70;99.90
33139;DHT22;19501;50.948;5.316;2023-10-09T06:35:34;16.60;99.90
33139;DHT22;19501;50.948;5.316;2023-10-09T06:38:01;16.40;99.90
33139;DHT22;19501;50.948;5.316;2023-10-09T06:40:37;16.50;99.90
33139;DHT22;19501;50.948;5.316;2023-10-09T06:43:22;16.50;99.90
33139;DHT22;19501;50.948;5.316;2023-10-09T06:45:48;16.40;99.90
33139;DHT22;19501;50.948;5.316;2023-10-09T06:48:32;16.30;99.90
33139;DHT22;19501;50.948;5.316;2023-10-09T06:51:05;16.20;99.90
33139;DHT22;19501;50.948;5.316;2023-10-09T06:53:49;16.30;99.90
33139;DHT22;19501;50.948;5.316;2023-10-09T06:56:28;16.40;99.90
33139;DHT22;19501;50.948;5.316;2023-10-09T07:01:41;16.60;99.90
33139;DHT22;19501;50.948;5.316;2023-10-09T07:04:12;16.60;99.90
33139;DHT22;19501;50.948;5.316;2023-10-09T07:06:50;16.40;99.90
33139;DHT22;19501;50.948;5.316;2023-10-09T07:09:17;16.20;99.90
33139;DHT22;19501;50.948;5.316;2023-10-09T07:11:46;16.10;99.90
33139;DHT22;19501;50.948;5.316;2023-10-09T07:14:18;16.10;99.90
33139;DHT22;19501;50.948;5.316;2023-10-09T07:17:00;16.10;99.90
33139;DHT22;19501;50.948;5.316;2023-10-09T07:19:31;16.20;99.90
33139;DHT22;19501;50.948;5.316;2023-10-09T07:22:03;16.20;99.90
33139;DHT22;19501;50.948;5.316;2023-10-09T07:24:33;16.10;99.90
33139;DHT22;19501;50.948;5.316;2023-10-09T07:27:16;16.30;99.90
33139;DHT22;19501;50.948;5.316;2023-10-09T07:29:43;16.30;99.90
33139;DHT22;19501;50.948;5.316;2023-10-09T07:32:18;16.30;99.90
33139;DHT22;19501;50.948;5.316;2023-10-09T07:34:47;16.30;99.90
33139;DHT22;19501;50.948;5.316;2023-10-09T07:37:27;16.20;99.90
33139;DHT22;19501;50.948;5.316;2023-10-09T07:39:59;16.30;99.90
33139;DHT22;19501;50.948;5.316;2023-10-09T07:42:32;16.30;99.90
33139;DHT22;19501;50.948;5.316;2023-10-09T07:45:12;16.40;99.90
33139;DHT22;19501;50.948;5.316;2023-10-09T07:47:58;16.40;99.90
33139;DHT22;19501;50.948;5.316;2023-10-09T07:50:38;16.50;99.90
33139;DHT22;19501;50.948;5.316;2023-10-09T07:53:09;16.60;99.90
33139;DHT22;19501;50.948;5.316;2023-10-09T07:55:45;16.80;99.90
33139;DHT22;19501;50.948;5.316;2023-10-09T07:58:20;16.80;99.90
33139;DHT22;19501;50.948;5.316;2023-10-09T08:00:54;16.70;99.90
33139;DHT22;19501;50.948;5.316;2023-10-09T08:03:23;16.70;99.90
33139;DHT22;19501;50.948;5.316;2023-10-09T08:05:50;16.70;99.90
33139;DHT22;19501;50.948;5.316;2023-10-09T08:08:18;16.90;99.90
33139;DHT22;19501;50.948;5.316;2023-10-09T08:11:07;16.80;99.90
33139;DHT22;19501;50.948;5.316;2023-10-09T08:13:52;16.90;99.90
33139;DHT22;19501;50.948;5.316;2023-10-09T08:16:26;17.00;99.90
33139;DHT22;19501;50.948;5.316;2023-10-09T08:19:03;17.00;99.90
33139;DHT22;19501;50.948;5.316;2023-10-09T08:21:48;17.20;99.90
33139;DHT22;19501;50.948;5.316;2023-10-09T08:24:34;17.40;99.90
33139;DHT22;19501;50.948;5.316;2023-10-09T08:27:28;17.20;99.90
33139;DHT22;19501;50.948;5.316;2023-10-09T08:30:01;17.20;99.90
33139;DHT22;19501;50.948;5.316;2023-10-09T08:32:49;17.30;99.90
33139;DHT22;19501;50.948;5.316;2023-10-09T08:35:34;17.40;99.90
33139;DHT22;19501;50.948;5.316;2023-10-09T08:38:14;17.60;99.90
33139;DHT22;19501;50.948;5.316;2023-10-09T08:40:43;17.80;99.90
33139;DHT22;19501;50.948;5.316;2023-10-09T08:43:21;17.90;99.90
33139;DHT22;19501;50.948;5.316;2023-10-09T08:45:55;18.00;99.90
33139;DHT22;19501;50.948;5.316;2023-10-09T08:48:27;17.90;99.90
33139;DHT22;19501;50.948;5.316;2023-10-09T08:50:53;18.00;99.90
33139;DHT22;19501;50.948;5.316;2023-10-09T08:53:23;18.10;99.90
33139;DHT22;19501;50.948;5.316;2023-10-09T08:55:50;18.20;99.90
33139;DHT22;19501;50.948;5.316;2023-10-09T08:58:17;18.20;99.90
33139;DHT22;19501;50.948;5.316;2023-10-09T09:00:51;18.40;99.90
33139;DHT22;19501;50.948;5.316;2023-10-09T09:03:19;18.20;99.90
33139;DHT22;19501;50.948;5.316;2023-10-09T09:05:59;18.20;99.90
33139;DHT22;19501;50.948;5.316;2023-10-09T09:08:31;18.30;99.90
33139;DHT22;19501;50.948;5.316;2023-10-09T09:10:59;18.20;99.90
33139;DHT22;19501;50.948;5.316;2023-10-09T09:13:36;18.20;99.90
33139;DHT22;19501;50.948;5.316;2023-10-09T09:16:01;18.20;99.90
33139;DHT22;19501;50.948;5.316;2023-10-09T09:18:28;18.30;99.90
33139;DHT22;19501;50.948;5.316;2023-10-09T09:21:17;18.20;99.90
33139;DHT22;19501;50.948;5.316;2023-10-09T09:23:59;18.50;99.90
33139;DHT22;19501;50.948;5.316;2023-10-09T09:26:37;18.80;99.90
33139;DHT22;19501;50.948;5.316;2023-10-09T09:29:06;18.80;99.90
33139;DHT22;19501;50.948;5.316;2023-10-09T09:31:35;18.90;99.90
33139;DHT22;19501;50.948;5.316;2023-10-09T09:34:07;18.90;99.90
33139;DHT22;19501;50.948;5.316;2023-10-09T09:36:59;19.10;99.90
33139;DHT22;19501;50.948;5.316;2023-10-09T09:39:29;19.00;99.90
33139;DHT22;19501;50.948;5.316;2023-10-09T09:42:00;19.10;99.90
33139;DHT22;19501;50.948;5.316;2023-10-09T09:44:39;19.20;99.90
33139;DHT22;19501;50.948;5.316;2023-10-09T09:47:14;19.40;99.90
33139;DHT22;19501;50.948;5.316;2023-10-09T09:50:05;19.50;99.90
33139;DHT22;19501;50.948;5.316;2023-10-09T09:52:38;19.80;99.90
33139;DHT22;19501;50.948;5.316;2023-10-09T09:55:08;19.90;99.90
33139;DHT22;19501;50.948;5.316;2023-10-09T09:57:44;19.90;99.90
33139;DHT22;19501;50.948;5.316;2023-10-09T10:00:12;20.00;99.90
33139;DHT22;19501;50.948;5.316;2023-10-09T10:02:54;20.20;99.90
33139;DHT22;19501;50.948;5.316;2023-10-09T10:05:24;20.20;99.90
33139;DHT22;19501;50.948;5.316;2023-10-09T10:07:58;20.10;99.90
33139;DHT22;19501;50.948;5.316;2023-10-09T10:10:37;20.00;99.90
33139;DHT22;19501;50.948;5.316;2023-10-09T10:13:05;20.10;99.90
33139;DHT22;19501;50.948;5.316;2023-10-09T10:18:32;20.10;99.90
33139;DHT22;19501;50.948;5.316;2023-10-09T10:21:14;20.30;99.90
33139;DHT22;19501;50.948;5.316;2023-10-09T10:24:01;20.30;99.90
33139;DHT22;19501;50.948;5.316;2023-10-09T10:26:35;20.20;99.90
33139;DHT22;19501;50.948;5.316;2023-10-09T10:32:01;20.10;99.90
33139;DHT22;19501;50.948;5.316;2023-10-09T10:34:53;20.20;99.90
33139;DHT22;19501;50.948;5.316;2023-10-09T10:37:38;20.50;99.90
33139;DHT22;19501;50.948;5.316;2023-10-09T10:40:09;20.60;99.90
33139;DHT22;19501;50.948;5.316;2023-10-09T10:43:03;20.70;99.90
33139;DHT22;19501;50.948;5.316;2023-10-09T10:45:37;20.70;99.90
33139;DHT22;19501;50.948;5.316;2023-10-09T10:48:09;20.70;99.90
33139;DHT22;19501;50.948;5.316;2023-10-09T10:51:05;20.80;99.90
33139;DHT22;19501;50.948;5.316;2023-10-09T10:53:31;20.80;99.90
33139;DHT22;19501;50.948;5.316;2023-10-09T10:56:15;20.80;99.90
33139;DHT22;19501;50.948;5.316;2023-10-09T10:58:52;20.90;99.90
33139;DHT22;19501;50.948;5.316;2023-10-09T11:01:21;20.90;99.90
33139;DHT22;19501;50.948;5.316;2023-10-09T11:03:51;21.10;99.90
33139;DHT22;19501;50.948;5.316;2023-10-09T11:06:30;21.30;99.90
33139;DHT22;19501;50.948;5.316;2023-10-09T11:09:03;21.50;99.90
33139;DHT22;19501;50.948;5.316;2023-10-09T11:11:35;21.50;99.90
33139;DHT22;19501;50.948;5.316;2023-10-09T11:14:13;21.40;99.90
33139;DHT22;19501;50.948;5.316;2023-10-09T11:16:49;21.50;99.90
33139;DHT22;19501;50.948;5.316;2023-10-09T11:19:19;21.50;99.90
33139;DHT22;19501;50.948;5.316;2023-10-09T11:21:55;21.40;99.90
33139;DHT22;19501;50.948;5.316;2023-10-09T11:24:47;21.30;99.90
33139;DHT22;19501;50.948;5.316;2023-10-09T11:27:25;21.50;99.90
33139;DHT22;19501;50.948;5.316;2023-10-09T11:29:54;21.50;99.90
33139;DHT22;19501;50.948;5.316;2023-10-09T11:32:21;21.60;99.90
33139;DHT22;19501;50.948;5.316;2023-10-09T11:35:10;21.70;99.90
33139;DHT22;19501;50.948;5.316;2023-10-09T11:37:36;21.90;99.90
33139;DHT22;19501;50.948;5.316;2023-10-09T11:40:30;22.00;99.90
33139;DHT22;19501;50.948;5.316;2023-10-09T11:43:19;22.40;99.90
33139;DHT22;19501;50.948;5.316;2023-10-09T11:46:09;22.30;99.90
33139;DHT22;19501;50.948;5.316;2023-10-09T11:48:39;22.40;99.90
33139;DHT22;19501;50.948;5.316;2023-10-09T11:51:33;22.10;99.90
33139;DHT22;19501;50.948;5.316;2023-10-09T11:54:03;22.10;99.90
33139;DHT22;19501;50.948;5.316;2023-10-09T11:56:29;22.00;99.90
33139;DHT22;19501;50.948;5.316;2023-10-09T11:58:54;21.90;99.90
33139;DHT22;19501;50.948;5.316;2023-10-09T12:01:24;22.00;99.90
33139;DHT22;19501;50.948;5.316;2023-10-09T12:03:51;22.00;99.90
33139;DHT22;19501;50.948;5.316;2023-10-09T12:06:18;22.30;99.90
33139;DHT22;19501;50.948;5.316;2023-10-09T12:08:45;22.30;99.90
33139;DHT22;19501;50.948;5.316;2023-10-09T12:11:16;22.50;99.90
33139;DHT22;19501;50.948;5.316;2023-10-09T12:13:54;22.70;99.90
33139;DHT22;19501;50.948;5.316;2023-10-09T12:16:26;22.60;99.90
33139;DHT22;19501;50.948;5.316;2023-10-09T12:18:58;22.70;99.90
33139;DHT22;19501;50.948;5.316;2023-10-09T12:21:25;22.70;99.90
33139;DHT22;19501;50.948;5.316;2023-10-09T12:23:53;22.60;99.90
33139;DHT22;19501;50.948;5.316;2023-10-09T12:26:22;22.40;99.90
33139;DHT22;19501;50.948;5.316;2023-10-09T12:28:49;22.30;99.90
33139;DHT22;19501;50.948;5.316;2023-10-09T12:31:16;22.20;99.90
33139;DHT22;19501;50.948;5.316;2023-10-09T12:33:45;22.10;99.90
33139;DHT22;19501;50.948;5.316;2023-10-09T12:36:12;22.30;99.90
33139;DHT22;19501;50.948;5.316;2023-10-09T12:39:01;21.90;99.90
33139;DHT22;19501;50.948;5.316;2023-10-09T12:41:27;21.70;99.90
33139;DHT22;19501;50.948;5.316;2023-10-09T12:43:54;21.90;99.90
33139;DHT22;19501;50.948;5.316;2023-10-09T12:46:20;21.90;99.90
33139;DHT22;19501;50.948;5.316;2023-10-09T12:48:54;21.80;99.90
33139;DHT22;19501;50.948;5.316;2023-10-09T12:51:21;21.80;99.90
33139;DHT22;19501;50.948;5.316;2023-10-09T12:53:51;22.10;99.90
33139;DHT22;19501;50.948;5.316;2023-10-09T12:56:24;22.10;99.90
33139;DHT22;19501;50.948;5.316;2023-10-09T12:58:59;22.20;99.90
33139;DHT22;19501;50.948;5.316;2023-10-09T13:01:26;22.20;99.90
33139;DHT22;19501;50.948;5.316;2023-10-09T13:03:58;22.00;99.90
33139;DHT22;19501;50.948;5.316;2023-10-09T13:06:26;21.90;99.90
33139;DHT22;19501;50.948;5.316;2023-10-09T13:08:52;21.90;99.90
33139;DHT22;19501;50.948;5.316;2023-10-09T13:11:17;22.00;99.90
33139;DHT22;19501;50.948;5.316;2023-10-09T13:13:45;21.70;99.90
33139;DHT22;19501;50.948;5.316;2023-10-09T13:16:16;21.70;99.90
33139;DHT22;19501;50.948;5.316;2023-10-09T13:18:58;21.60;99.90
33139;DHT22;19501;50.948;5.316;2023-10-09T13:21:31;21.70;99.90
33139;DHT22;19501;50.948;5.316;2023-10-09T13:23:57;21.60;99.90
33139;DHT22;19501;50.948;5.316;2023-10-09T13:26:26;21.60;99.90
33139;DHT22;19501;50.948;5.316;2023-10-09T13:29:01;21.50;99.90
33139;DHT22;19501;50.948;5.316;2023-10-09T13:31:27;21.40;99.90
33139;DHT22;19501;50.948;5.316;2023-10-09T13:33:57;21.70;99.90
33139;DHT22;19501;50.948;5.316;2023-10-09T13:36:26;21.70;99.90
33139;DHT22;19501;50.948;5.316;2023-10-09T13:38:56;21.80;99.90
33139;DHT22;19501;50.948;5.316;2023-10-09T13:41:22;22.00;99.90
33139;DHT22;19501;50.948;5.316;2023-10-09T13:43:51;22.20;99.90
33139;DHT22;19501;50.948;5.316;2023-10-09T13:46:17;22.10;99.90
33139;DHT22;19501;50.948;5.316;2023-10-09T13:48:43;22.40;99.90
33139;DHT22;19501;50.948;5.316;2023-10-09T13:51:11;22.50;99.90
33139;DHT22;19501;50.948;5.316;2023-10-09T13:53:45;22.70;99.90
33139;DHT22;19501;50.948;5.316;2023-10-09T13:58:47;22.50;99.90
33139;DHT22;19501;50.948;5.316;2023-10-09T14:01:14;22.40;99.90
33139;DHT22;19501;50.948;5.316;2023-10-09T14:03:59;22.20;99.90
33139;DHT22;19501;50.948;5.316;2023-10-09T14:06:26;22.10;99.90
33139;DHT22;19501;50.948;5.316;2023-10-09T14:08:59;22.00;99.90
33139;DHT22;19501;50.948;5.316;2023-10-09T14:11:25;22.20;99.90
33139;DHT22;19501;50.948;5.316;2023-10-09T14:13:52;22.20;99.90
33139;DHT22;19501;50.948;5.316;2023-10-09T14:16:20;21.80;99.90
33139;DHT22;19501;50.948;5.316;2023-10-09T14:18:58;21.80;99.90
33139;DHT22;19501;50.948;5.316;2023-10-09T14:21:26;21.60;99.90
33139;DHT22;19501;50.948;5.316;2023-10-09T14:23:56;21.70;99.90
33139;DHT22;19501;50.948;5.316;2023-10-09T14:26:26;21.60;99.90
33139;DHT22;19501;50.948;5.316;2023-10-09T14:28:53;21.70;99.90
33139;DHT22;19501;50.948;5.316;2023-10-09T14:31:22;21.70;99.90
33139;DHT22;19501;50.948;5.316;2023-10-09T14:33:56;21.60;99.90
33139;DHT22;19501;50.948;5.316;2023-10-09T14:36:23;21.80;99.90
33139;DHT22;19501;50.948;5.316;2023-10-09T14:38:50;21.70;99.90
33139;DHT22;19501;50.948;5.316;2023-10-09T14:41:19;21.70;99.90
33139;DHT22;19501;50.948;5.316;2023-10-09T14:43:49;21.80;99.90
33139;DHT22;19501;50.948;5.316;2023-10-09T14:46:15;21.70;99.90
33139;DHT22;19501;50.948;5.316;2023-10-09T14:48:40;21.70;99.90
33139;DHT22;19501;50.948;5.316;2023-10-09T14:51:11;21.60;99.90
33139;DHT22;19501;50.948;5.316;2023-10-09T14:53:39;21.40;99.90
33139;DHT22;19501;50.948;5.316;2023-10-09T14:56:06;21.40;99.90
33139;DHT22;19501;50.948;5.316;2023-10-09T14:58:35;21.50;99.90
33139;DHT22;19501;50.948;5.316;2023-10-09T15:01:08;21.70;99.90
33139;DHT22;19501;50.948;5.316;2023-10-09T15:03:38;21.60;99.90
33139;DHT22;19501;50.948;5.316;2023-10-09T15:06:04;21.70;99.90
33139;DHT22;19501;50.948;5.316;2023-10-09T15:08:36;21.60;99.90
33139;DHT22;19501;50.948;5.316;2023-10-09T15:11:01;21.70;99.90
33139;DHT22;19501;50.948;5.316;2023-10-09T15:13:27;21.80;99.90
33139;DHT22;19501;50.948;5.316;2023-10-09T15:15:54;21.80;99.90
33139;DHT22;19501;50.948;5.316;2023-10-09T15:18:23;21.80;99.90
33139;DHT22;19501;50.948;5.316;2023-10-09T15:20:49;21.70;99.90
33139;DHT22;19501;50.948;5.316;2023-10-09T15:23:14;21.60;99.90
33139;DHT22;19501;50.948;5.316;2023-10-09T15:25:40;21.70;99.90
33139;DHT22;19501;50.948;5.316;2023-10-09T15:28:10;21.70;99.90
33139;DHT22;19501;50.948;5.316;2023-10-09T15:30:36;21.70;99.90
33139;DHT22;19501;50.948;5.316;2023-10-09T15:33:06;21.60;99.90
33139;DHT22;19501;50.948;5.316;2023-10-09T15:35:33;21.60;99.90
33139;DHT22;19501;50.948;5.316;2023-10-09T15:38:02;21.60;99.90
33139;DHT22;19501;50.948;5.316;2023-10-09T15:40:29;21.60;99.90
33139;DHT22;19501;50.948;5.316;2023-10-09T15:42:59;21.50;99.90
33139;DHT22;19501;50.948;5.316;2023-10-09T15:45:27;21.60;99.90
33139;DHT22;19501;50.948;5.316;2023-10-09T15:47:55;21.60;99.90
33139;DHT22;19501;50.948;5.316;2023-10-09T15:50:21;21.60;99.90
33139;DHT22;19501;50.948;5.316;2023-10-09T15:52:51;21.60;99.90
33139;DHT22;19501;50.948;5.316;2023-10-09T15:55:19;21.50;99.90
33139;DHT22;19501;50.948;5.316;2023-10-09T15:57:46;21.40;99.90
33139;DHT22;19501;50.948;5.316;2023-10-09T16:00:17;21.40;99.90
33139;DHT22;19501;50.948;5.316;2023-10-09T16:02:49;21.40;99.90
33139;DHT22;19501;50.948;5.316;2023-10-09T16:05:18;21.10;99.90
33139;DHT22;19501;50.948;5.316;2023-10-09T16:07:44;21.10;99.90
33139;DHT22;19501;50.948;5.316;2023-10-09T16:10:11;21.10;99.90
33139;DHT22;19501;50.948;5.316;2023-10-09T16:12:39;21.20;99.90
33139;DHT22;19501;50.948;5.316;2023-10-09T16:15:06;20.90;99.90
33139;DHT22;19501;50.948;5.316;2023-10-09T16:17:35;20.80;99.90
33139;DHT22;19501;50.948;5.316;2023-10-09T16:20:03;20.70;99.90